sensor_id;sensor_type;location;lat;lon;timestamp;pressure;altitude;pressure_sealevel;temperature
72675;BMP280;60752;53.962;9.614;2022-08-07T00:03:16;102690.50;;;12.68
72675;BMP280;60752;53.962;9.614;2022-08-07T00:08:17;102683.56;;;12.62
72675;BMP280;60752;53.962;9.614;2022-08-07T00:13:18;102682.78;;;12.61
72675;BMP280;60752;53.962;9.614;2022-08-07T00:18:23;102682.56;;;12.51
72675;BMP280;60752;53.962;9.614;2022-08-07T00:23:24;102680.75;;;12.40
72675;BMP280;60752;53.962;9.614;2022-08-07T00:28:25;102674.19;;;12.38
72675;BMP280;60752;53.962;9.614;2022-08-07T00:33:26;102667.78;;;12.33
72675;BMP280;60752;53.962;9.614;2022-08-07T00:38:27;102669.38;;;12.34
72675;BMP280;60752;53.962;9.614;2022-08-07T00:43:27;102672.00;;;12.34
72675;BMP280;60752;53.962;9.614;2022-08-07T00:48:29;102673.44;;;12.42
72675;BMP280;60752;53.962;9.614;2022-08-07T00:53:30;102668.09;;;12.25
72675;BMP280;60752;53.962;9.614;2022-08-07T00:58:30;102666.22;;;12.21
72675;BMP280;60752;53.962;9.614;2022-08-07T01:03:32;102666.34;;;12.14
72675;BMP280;60752;53.962;9.614;2022-08-07T01:08:33;102674.00;;;12.04
72675;BMP280;60752;53.962;9.614;2022-08-07T01:13:34;102663.84;;;11.96
72675;BMP280;60752;53.962;9.614;2022-08-07T01:18:36;102670.91;;;11.95
72675;BMP280;60752;53.962;9.614;2022-08-07T01:23:39;102659.31;;;11.91
72675;BMP280;60752;53.962;9.614;2022-08-07T01:28:41;102657.69;;;11.90
72675;BMP280;60752;53.962;9.614;2022-08-07T01:33:42;102660.53;;;11.89
72675;BMP280;60752;53.962;9.614;2022-08-07T01:38:44;102649.78;;;11.79
72675;BMP280;60752;53.962;9.614;2022-08-07T01:43:45;102656.22;;;11.71
72675;BMP280;60752;53.962;9.614;2022-08-07T01:48:47;102652.00;;;11.70
72675;BMP280;60752;53.962;9.614;2022-08-07T01:53:52;102644.44;;;11.62
72675;BMP280;60752;53.962;9.614;2022-08-07T01:58:58;102647.00;;;11.57
72675;BMP280;60752;53.962;9.614;2022-08-07T02:04:04;102650.41;;;11.57
72675;BMP280;60752;53.962;9.614;2022-08-07T02:09:09;102646.75;;;11.47
72675;BMP280;60752;53.962;9.614;2022-08-07T02:14:12;102654.59;;;11.58
72675;BMP280;60752;53.962;9.614;2022-08-07T02:19:13;102655.66;;;11.57
72675;BMP280;60752;53.962;9.614;2022-08-07T02:24:17;102646.97;;;11.45
72675;BMP280;60752;53.962;9.614;2022-08-07T02:29:18;102650.84;;;11.43
72675;BMP280;60752;53.962;9.614;2022-08-07T02:34:19;102636.25;;;11.35
72675;BMP280;60752;53.962;9.614;2022-08-07T02:39:22;102640.56;;;11.29
72675;BMP280;60752;53.962;9.614;2022-08-07T02:44:24;102631.66;;;11.30
72675;BMP280;60752;53.962;9.614;2022-08-07T02:49:27;102630.63;;;11.31
72675;BMP280;60752;53.962;9.614;2022-08-07T02:54:29;102636.78;;;11.25
72675;BMP280;60752;53.962;9.614;2022-08-07T02:59:32;102622.97;;;11.18
72675;BMP280;60752;53.962;9.614;2022-08-07T03:04:33;102632.91;;;11.16
72675;BMP280;60752;53.962;9.614;2022-08-07T03:09:36;102622.41;;;11.16
72675;BMP280;60752;53.962;9.614;2022-08-07T03:14:37;102617.84;;;11.12
72675;BMP280;60752;53.962;9.614;2022-08-07T03:19:38;102622.59;;;11.03
72675;BMP280;60752;53.962;9.614;2022-08-07T03:24:40;102619.56;;;11.06
72675;BMP280;60752;53.962;9.614;2022-08-07T03:29:44;102617.34;;;11.03
72675;BMP280;60752;53.962;9.614;2022-08-07T03:34:48;102622.91;;;10.95
72675;BMP280;60752;53.962;9.614;2022-08-07T03:39:50;102611.19;;;10.97
72675;BMP280;60752;53.962;9.614;2022-08-07T03:44:53;102605.25;;;10.90
72675;BMP280;60752;53.962;9.614;2022-08-07T03:49:53;102615.03;;;10.83
72675;BMP280;60752;53.962;9.614;2022-08-07T03:54:57;102611.97;;;10.86
72675;BMP280;60752;53.962;9.614;2022-08-07T03:59:58;102604.78;;;10.82
72675;BMP280;60752;53.962;9.614;2022-08-07T04:04:59;102609.56;;;10.85
72675;BMP280;60752;53.962;9.614;2022-08-07T04:10:01;102604.97;;;10.80
72675;BMP280;60752;53.962;9.614;2022-08-07T04:15:02;102614.13;;;10.77
72675;BMP280;60752;53.962;9.614;2022-08-07T04:20:04;102618.69;;;10.82
72675;BMP280;60752;53.962;9.614;2022-08-07T04:25:09;102619.75;;;10.93
72675;BMP280;60752;53.962;9.614;2022-08-07T04:30:11;102630.66;;;10.90
72675;BMP280;60752;53.962;9.614;2022-08-07T04:35:11;102632.16;;;10.97
72675;BMP280;60752;53.962;9.614;2022-08-07T04:40:13;102635.91;;;11.01
72675;BMP280;60752;53.962;9.614;2022-08-07T04:45:14;102651.91;;;11.00
72675;BMP280;60752;53.962;9.614;2022-08-07T04:50:20;102651.66;;;11.01
72675;BMP280;60752;53.962;9.614;2022-08-07T04:55:31;102648.59;;;11.04
72675;BMP280;60752;53.962;9.614;2022-08-07T05:00:37;102648.31;;;11.36
72675;BMP280;60752;53.962;9.614;2022-08-07T05:05:44;102647.00;;;11.68
72675;BMP280;60752;53.962;9.614;2022-08-07T05:10:51;102654.13;;;11.96
72675;BMP280;60752;53.962;9.614;2022-08-07T05:15:56;102644.69;;;12.35
72675;BMP280;60752;53.962;9.614;2022-08-07T05:21:01;102654.00;;;12.72
72675;BMP280;60752;53.962;9.614;2022-08-07T05:26:04;102660.66;;;13.19
72675;BMP280;60752;53.962;9.614;2022-08-07T05:31:10;102662.63;;;13.68
72675;BMP280;60752;53.962;9.614;2022-08-07T05:36:11;102670.06;;;14.14
72675;BMP280;60752;53.962;9.614;2022-08-07T05:41:13;102676.22;;;14.42
72675;BMP280;60752;53.962;9.614;2022-08-07T05:46:15;102669.84;;;14.91
72675;BMP280;60752;53.962;9.614;2022-08-07T05:51:17;102672.53;;;15.39
72675;BMP280;60752;53.962;9.614;2022-08-07T05:56:20;102673.56;;;15.90
72675;BMP280;60752;53.962;9.614;2022-08-07T06:01:21;102676.31;;;16.20
72675;BMP280;60752;53.962;9.614;2022-08-07T06:06:22;102670.00;;;16.52
72675;BMP280;60752;53.962;9.614;2022-08-07T06:11:25;102673.72;;;16.91
72675;BMP280;60752;53.962;9.614;2022-08-07T06:16:28;102673.41;;;17.18
72675;BMP280;60752;53.962;9.614;2022-08-07T06:21:31;102682.81;;;17.55
72675;BMP280;60752;53.962;9.614;2022-08-07T06:26:33;102687.47;;;17.83
72675;BMP280;60752;53.962;9.614;2022-08-07T06:31:34;102674.50;;;17.82
72675;BMP280;60752;53.962;9.614;2022-08-07T06:36:34;102673.81;;;17.56
72675;BMP280;60752;53.962;9.614;2022-08-07T06:41:39;102682.94;;;17.94
72675;BMP280;60752;53.962;9.614;2022-08-07T06:46:41;102678.94;;;18.36
72675;BMP280;60752;53.962;9.614;2022-08-07T06:51:42;102682.59;;;18.79
72675;BMP280;60752;53.962;9.614;2022-08-07T06:56:47;102676.50;;;19.26
72675;BMP280;60752;53.962;9.614;2022-08-07T07:01:48;102665.84;;;19.68
72675;BMP280;60752;53.962;9.614;2022-08-07T07:06:49;102668.63;;;19.82
72675;BMP280;60752;53.962;9.614;2022-08-07T07:11:59;102666.88;;;20.24
72675;BMP280;60752;53.962;9.614;2022-08-07T07:17:17;102664.19;;;20.56
72675;BMP280;60752;53.962;9.614;2022-08-07T07:22:20;102673.53;;;20.86
72675;BMP280;60752;53.962;9.614;2022-08-07T07:27:24;102672.63;;;20.91
72675;BMP280;60752;53.962;9.614;2022-08-07T07:32:29;102676.84;;;21.33
72675;BMP280;60752;53.962;9.614;2022-08-07T07:37:31;102665.16;;;21.56
72675;BMP280;60752;53.962;9.614;2022-08-07T07:42:35;102668.09;;;21.77
72675;BMP280;60752;53.962;9.614;2022-08-07T07:47:38;102668.59;;;22.01
72675;BMP280;60752;53.962;9.614;2022-08-07T07:52:42;102675.28;;;21.90
72675;BMP280;60752;53.962;9.614;2022-08-07T07:57:46;102667.72;;;22.14
72675;BMP280;60752;53.962;9.614;2022-08-07T08:02:49;102659.50;;;22.33
72675;BMP280;60752;53.962;9.614;2022-08-07T08:07:52;102656.78;;;22.55
72675;BMP280;60752;53.962;9.614;2022-08-07T08:12:54;102655.09;;;22.68
72675;BMP280;60752;53.962;9.614;2022-08-07T08:17:56;102647.41;;;22.75
72675;BMP280;60752;53.962;9.614;2022-08-07T08:22:58;102650.63;;;23.03
72675;BMP280;60752;53.962;9.614;2022-08-07T08:28:02;102639.94;;;23.20
72675;BMP280;60752;53.962;9.614;2022-08-07T08:33:04;102645.63;;;23.45
72675;BMP280;60752;53.962;9.614;2022-08-07T08:38:07;102637.56;;;23.62
72675;BMP280;60752;53.962;9.614;2022-08-07T08:43:14;102640.75;;;23.55
72675;BMP280;60752;53.962;9.614;2022-08-07T08:48:22;102630.66;;;23.69
72675;BMP280;60752;53.962;9.614;2022-08-07T08:53:31;102631.22;;;23.92
72675;BMP280;60752;53.962;9.614;2022-08-07T08:58:41;102633.00;;;23.71
72675;BMP280;60752;53.962;9.614;2022-08-07T09:03:51;102627.16;;;23.86
72675;BMP280;60752;53.962;9.614;2022-08-07T09:08:55;102632.59;;;23.52
72675;BMP280;60752;53.962;9.614;2022-08-07T09:14:05;102630.06;;;23.47
72675;BMP280;60752;53.962;9.614;2022-08-07T09:19:14;102630.81;;;23.04
72675;BMP280;60752;53.962;9.614;2022-08-07T09:24:25;102625.81;;;22.46
72675;BMP280;60752;53.962;9.614;2022-08-07T09:29:39;102617.09;;;22.01
72675;BMP280;60752;53.962;9.614;2022-08-07T09:34:49;102619.16;;;21.73
72675;BMP280;60752;53.962;9.614;2022-08-07T09:39:57;102623.38;;;21.51
72675;BMP280;60752;53.962;9.614;2022-08-07T09:45:10;102618.69;;;21.35
72675;BMP280;60752;53.962;9.614;2022-08-07T09:50:16;102618.28;;;21.41
72675;BMP280;60752;53.962;9.614;2022-08-07T09:55:22;102608.75;;;21.49
72675;BMP280;60752;53.962;9.614;2022-08-07T10:00:33;102609.75;;;21.53
72675;BMP280;60752;53.962;9.614;2022-08-07T10:06:12;102606.81;;;21.41
72675;BMP280;60752;53.962;9.614;2022-08-07T10:11:27;102604.59;;;21.34
72675;BMP280;60752;53.962;9.614;2022-08-07T10:16:54;102590.13;;;21.13
72675;BMP280;60752;53.962;9.614;2022-08-07T10:22:11;102593.00;;;21.03
72675;BMP280;60752;53.962;9.614;2022-08-07T10:27:30;102592.13;;;20.80
72675;BMP280;60752;53.962;9.614;2022-08-07T10:32:59;102587.59;;;20.81
72675;BMP280;60752;53.962;9.614;2022-08-07T10:38:13;102579.91;;;20.79
72675;BMP280;60752;53.962;9.614;2022-08-07T10:43:19;102584.94;;;20.94
72675;BMP280;60752;53.962;9.614;2022-08-07T10:48:30;102568.16;;;21.30
72675;BMP280;60752;53.962;9.614;2022-08-07T10:53:38;102560.78;;;21.49
72675;BMP280;60752;53.962;9.614;2022-08-07T10:58:55;102558.41;;;21.47
72675;BMP280;60752;53.962;9.614;2022-08-07T11:04:04;102546.38;;;21.50
72675;BMP280;60752;53.962;9.614;2022-08-07T11:09:11;102544.75;;;21.71
72675;BMP280;60752;53.962;9.614;2022-08-07T11:14:18;102541.78;;;22.04
72675;BMP280;60752;53.962;9.614;2022-08-07T11:19:25;102539.16;;;22.12
72675;BMP280;60752;53.962;9.614;2022-08-07T11:24:32;102540.91;;;22.17
72675;BMP280;60752;53.962;9.614;2022-08-07T11:29:40;102536.19;;;22.22
72675;BMP280;60752;53.962;9.614;2022-08-07T11:34:48;102527.22;;;22.18
72675;BMP280;60752;53.962;9.614;2022-08-07T11:40:05;102532.41;;;22.06
72675;BMP280;60752;53.962;9.614;2022-08-07T11:45:14;102526.81;;;21.85
72675;BMP280;60752;53.962;9.614;2022-08-07T11:50:25;102508.56;;;22.10
72675;BMP280;60752;53.962;9.614;2022-08-07T11:55:42;102519.94;;;22.33
72675;BMP280;60752;53.962;9.614;2022-08-07T12:00:54;102518.50;;;22.35
72675;BMP280;60752;53.962;9.614;2022-08-07T12:06:11;102518.19;;;22.37
72675;BMP280;60752;53.962;9.614;2022-08-07T12:11:19;102501.56;;;22.31
72675;BMP280;60752;53.962;9.614;2022-08-07T12:16:28;102500.41;;;22.23
72675;BMP280;60752;53.962;9.614;2022-08-07T12:21:36;102497.28;;;22.21
72675;BMP280;60752;53.962;9.614;2022-08-07T12:26:44;102492.53;;;22.18
72675;BMP280;60752;53.962;9.614;2022-08-07T12:31:52;102486.16;;;22.28
72675;BMP280;60752;53.962;9.614;2022-08-07T12:36:58;102485.56;;;22.40
72675;BMP280;60752;53.962;9.614;2022-08-07T12:41:59;102485.13;;;22.55
72675;BMP280;60752;53.962;9.614;2022-08-07T12:47:09;102478.47;;;22.52
72675;BMP280;60752;53.962;9.614;2022-08-07T12:52:14;102469.19;;;22.41
72675;BMP280;60752;53.962;9.614;2022-08-07T12:57:16;102474.38;;;22.29
72675;BMP280;60752;53.962;9.614;2022-08-07T13:02:37;102473.56;;;22.20
72675;BMP280;60752;53.962;9.614;2022-08-07T13:07:56;102480.47;;;22.30
72675;BMP280;60752;53.962;9.614;2022-08-07T13:13:17;102472.66;;;22.33
72675;BMP280;60752;53.962;9.614;2022-08-07T13:18:26;102478.16;;;22.28
72675;BMP280;60752;53.962;9.614;2022-08-07T13:23:36;102479.06;;;22.23
72675;BMP280;60752;53.962;9.614;2022-08-07T13:28:43;102481.69;;;22.06
72675;BMP280;60752;53.962;9.614;2022-08-07T13:33:49;102480.44;;;22.04
72675;BMP280;60752;53.962;9.614;2022-08-07T13:38:58;102475.75;;;22.09
72675;BMP280;60752;53.962;9.614;2022-08-07T13:44:01;102479.47;;;22.00
72675;BMP280;60752;53.962;9.614;2022-08-07T13:49:04;102469.88;;;21.90
72675;BMP280;60752;53.962;9.614;2022-08-07T13:54:08;102461.06;;;21.89
72675;BMP280;60752;53.962;9.614;2022-08-07T13:59:16;102466.44;;;21.98
72675;BMP280;60752;53.962;9.614;2022-08-07T14:04:17;102458.56;;;21.93
72675;BMP280;60752;53.962;9.614;2022-08-07T14:09:22;102446.16;;;21.88
72675;BMP280;60752;53.962;9.614;2022-08-07T14:14:27;102450.84;;;21.83
72675;BMP280;60752;53.962;9.614;2022-08-07T14:19:34;102453.88;;;21.90
72675;BMP280;60752;53.962;9.614;2022-08-07T14:24:40;102444.94;;;21.95
72675;BMP280;60752;53.962;9.614;2022-08-07T14:29:46;102438.84;;;22.11
72675;BMP280;60752;53.962;9.614;2022-08-07T14:34:47;102429.13;;;22.07
72675;BMP280;60752;53.962;9.614;2022-08-07T14:39:50;102434.47;;;22.07
72675;BMP280;60752;53.962;9.614;2022-08-07T14:44:55;102429.28;;;22.02
72675;BMP280;60752;53.962;9.614;2022-08-07T14:49:57;102432.41;;;22.04
72675;BMP280;60752;53.962;9.614;2022-08-07T14:55:00;102421.72;;;22.04
72675;BMP280;60752;53.962;9.614;2022-08-07T15:00:02;102419.53;;;22.06
72675;BMP280;60752;53.962;9.614;2022-08-07T15:05:04;102416.38;;;21.95
72675;BMP280;60752;53.962;9.614;2022-08-07T15:10:07;102408.69;;;21.94
72675;BMP280;60752;53.962;9.614;2022-08-07T15:15:11;102412.75;;;22.00
72675;BMP280;60752;53.962;9.614;2022-08-07T15:20:14;102415.44;;;22.00
72675;BMP280;60752;53.962;9.614;2022-08-07T15:25:20;102411.84;;;22.04
72675;BMP280;60752;53.962;9.614;2022-08-07T15:30:23;102408.53;;;21.99
72675;BMP280;60752;53.962;9.614;2022-08-07T15:35:25;102399.88;;;21.84
72675;BMP280;60752;53.962;9.614;2022-08-07T15:40:28;102401.41;;;21.77
72675;BMP280;60752;53.962;9.614;2022-08-07T15:45:35;102402.78;;;21.66
72675;BMP280;60752;53.962;9.614;2022-08-07T15:50:39;102399.78;;;21.50
72675;BMP280;60752;53.962;9.614;2022-08-07T15:55:43;102391.25;;;21.48
72675;BMP280;60752;53.962;9.614;2022-08-07T16:00:44;102390.34;;;21.52
72675;BMP280;60752;53.962;9.614;2022-08-07T16:05:46;102391.97;;;21.62
72675;BMP280;60752;53.962;9.614;2022-08-07T16:10:54;102397.63;;;21.78
72675;BMP280;60752;53.962;9.614;2022-08-07T16:16:03;102394.53;;;21.76
72675;BMP280;60752;53.962;9.614;2022-08-07T16:21:07;102395.75;;;21.70
72675;BMP280;60752;53.962;9.614;2022-08-07T16:26:15;102391.34;;;21.65
72675;BMP280;60752;53.962;9.614;2022-08-07T16:31:24;102391.00;;;21.58
72675;BMP280;60752;53.962;9.614;2022-08-07T16:36:37;102378.13;;;21.51
72675;BMP280;60752;53.962;9.614;2022-08-07T16:42:16;102386.06;;;21.43
72675;BMP280;60752;53.962;9.614;2022-08-07T16:53:02;102385.06;;;21.30
72675;BMP280;60752;53.962;9.614;2022-08-07T16:58:15;102384.59;;;21.28
72675;BMP280;60752;53.962;9.614;2022-08-07T17:03:26;102382.03;;;21.23
72675;BMP280;60752;53.962;9.614;2022-08-07T17:08:36;102387.53;;;21.18
72675;BMP280;60752;53.962;9.614;2022-08-07T17:13:59;102376.88;;;21.18
72675;BMP280;60752;53.962;9.614;2022-08-07T17:19:03;102379.97;;;21.20
72675;BMP280;60752;53.962;9.614;2022-08-07T17:24:34;102374.00;;;21.14
72675;BMP280;60752;53.962;9.614;2022-08-07T17:29:58;102376.88;;;21.18
72675;BMP280;60752;53.962;9.614;2022-08-07T17:35:06;102370.88;;;21.12
72675;BMP280;60752;53.962;9.614;2022-08-07T17:40:16;102370.06;;;21.12
72675;BMP280;60752;53.962;9.614;2022-08-07T17:45:23;102369.84;;;21.00
72675;BMP280;60752;53.962;9.614;2022-08-07T17:50:35;102376.50;;;20.89
72675;BMP280;60752;53.962;9.614;2022-08-07T17:55:47;102373.31;;;20.78
72675;BMP280;60752;53.962;9.614;2022-08-07T18:00:51;102379.63;;;20.68
72675;BMP280;60752;53.962;9.614;2022-08-07T18:05:57;102377.78;;;20.69
72675;BMP280;60752;53.962;9.614;2022-08-07T18:11:06;102377.34;;;20.53
72675;BMP280;60752;53.962;9.614;2022-08-07T18:16:13;102366.44;;;20.41
72675;BMP280;60752;53.962;9.614;2022-08-07T18:21:21;102373.13;;;20.38
72675;BMP280;60752;53.962;9.614;2022-08-07T18:26:37;102367.84;;;20.25
72675;BMP280;60752;53.962;9.614;2022-08-07T18:31:51;102372.28;;;20.16
72675;BMP280;60752;53.962;9.614;2022-08-07T18:37:09;102379.41;;;20.06
72675;BMP280;60752;53.962;9.614;2022-08-07T18:42:20;102386.88;;;19.91
72675;BMP280;60752;53.962;9.614;2022-08-07T18:47:27;102379.41;;;19.79
72675;BMP280;60752;53.962;9.614;2022-08-07T18:52:38;102386.06;;;19.63
72675;BMP280;60752;53.962;9.614;2022-08-07T18:57:50;102381.53;;;19.50
72675;BMP280;60752;53.962;9.614;2022-08-07T19:02:58;102392.13;;;19.36
72675;BMP280;60752;53.962;9.614;2022-08-07T19:08:06;102390.22;;;19.23
72675;BMP280;60752;53.962;9.614;2022-08-07T19:13:08;102399.94;;;19.14
72675;BMP280;60752;53.962;9.614;2022-08-07T19:18:19;102405.56;;;19.07
72675;BMP280;60752;53.962;9.614;2022-08-07T19:23:23;102407.56;;;19.02
72675;BMP280;60752;53.962;9.614;2022-08-07T19:28:26;102419.19;;;18.87
72675;BMP280;60752;53.962;9.614;2022-08-07T19:33:29;102410.13;;;18.69
72675;BMP280;60752;53.962;9.614;2022-08-07T19:38:32;102424.09;;;18.56
72675;BMP280;60752;53.962;9.614;2022-08-07T19:43:36;102428.81;;;18.40
72675;BMP280;60752;53.962;9.614;2022-08-07T19:48:45;102424.25;;;18.22
72675;BMP280;60752;53.962;9.614;2022-08-07T19:53:48;102429.41;;;18.08
72675;BMP280;60752;53.962;9.614;2022-08-07T19:58:50;102435.88;;;17.97
72675;BMP280;60752;53.962;9.614;2022-08-07T20:03:53;102434.59;;;17.94
72675;BMP280;60752;53.962;9.614;2022-08-07T20:08:54;102438.66;;;17.82
72675;BMP280;60752;53.962;9.614;2022-08-07T20:13:56;102447.31;;;17.63
72675;BMP280;60752;53.962;9.614;2022-08-07T20:19:00;102450.53;;;17.55
72675;BMP280;60752;53.962;9.614;2022-08-07T20:24:02;102447.94;;;17.45
72675;BMP280;60752;53.962;9.614;2022-08-07T20:29:04;102458.19;;;17.23
72675;BMP280;60752;53.962;9.614;2022-08-07T20:34:07;102452.94;;;17.13
72675;BMP280;60752;53.962;9.614;2022-08-07T20:39:11;102446.38;;;17.05
72675;BMP280;60752;53.962;9.614;2022-08-07T20:44:13;102449.09;;;16.90
72675;BMP280;60752;53.962;9.614;2022-08-07T20:49:16;102444.09;;;16.83
72675;BMP280;60752;53.962;9.614;2022-08-07T20:54:17;102453.63;;;16.74
72675;BMP280;60752;53.962;9.614;2022-08-07T20:59:21;102455.00;;;16.67
72675;BMP280;60752;53.962;9.614;2022-08-07T21:04:27;102454.22;;;16.61
72675;BMP280;60752;53.962;9.614;2022-08-07T21:09:30;102456.09;;;16.45
72675;BMP280;60752;53.962;9.614;2022-08-07T21:14:37;102448.75;;;16.27
72675;BMP280;60752;53.962;9.614;2022-08-07T21:19:40;102449.81;;;16.21
72675;BMP280;60752;53.962;9.614;2022-08-07T21:24:49;102450.09;;;16.04
72675;BMP280;60752;53.962;9.614;2022-08-07T21:30:00;102450.09;;;16.04
72675;BMP280;60752;53.962;9.614;2022-08-07T21:35:05;102448.78;;;16.02
72675;BMP280;60752;53.962;9.614;2022-08-07T21:40:11;102442.16;;;15.79
72675;BMP280;60752;53.962;9.614;2022-08-07T21:45:36;102450.59;;;15.71
72675;BMP280;60752;53.962;9.614;2022-08-07T21:50:45;102456.16;;;15.64
72675;BMP280;60752;53.962;9.614;2022-08-07T21:55:54;102457.72;;;15.55
72675;BMP280;60752;53.962;9.614;2022-08-07T22:01:03;102455.31;;;15.48
72675;BMP280;60752;53.962;9.614;2022-08-07T22:06:09;102458.97;;;15.37
72675;BMP280;60752;53.962;9.614;2022-08-07T22:11:11;102471.38;;;15.26
72675;BMP280;60752;53.962;9.614;2022-08-07T22:16:16;102466.28;;;15.10
72675;BMP280;60752;53.962;9.614;2022-08-07T22:21:21;102462.31;;;15.07
72675;BMP280;60752;53.962;9.614;2022-08-07T22:26:28;102457.81;;;14.98
72675;BMP280;60752;53.962;9.614;2022-08-07T22:31:36;102453.28;;;14.93
72675;BMP280;60752;53.962;9.614;2022-08-07T22:36:46;102456.16;;;14.81
72675;BMP280;60752;53.962;9.614;2022-08-07T22:41:51;102460.59;;;14.76
72675;BMP280;60752;53.962;9.614;2022-08-07T22:47:13;102456.88;;;14.72
72675;BMP280;60752;53.962;9.614;2022-08-07T22:52:28;102460.03;;;14.69
72675;BMP280;60752;53.962;9.614;2022-08-07T22:57:57;102462.63;;;14.58
72675;BMP280;60752;53.962;9.614;2022-08-07T23:03:21;102465.97;;;14.54
72675;BMP280;60752;53.962;9.614;2022-08-07T23:08:35;102472.00;;;14.49
72675;BMP280;60752;53.962;9.614;2022-08-07T23:13:49;102468.03;;;14.42
72675;BMP280;60752;53.962;9.614;2022-08-07T23:18:57;102468.03;;;14.42
72675;BMP280;60752;53.962;9.614;2022-08-07T23:24:10;102481.25;;;14.47
72675;BMP280;60752;53.962;9.614;2022-08-07T23:29:43;102478.03;;;14.40
72675;BMP280;60752;53.962;9.614;2022-08-07T23:34:56;102478.03;;;14.40
72675;BMP280;60752;53.962;9.614;2022-08-07T23:40:13;102473.16;;;14.26
72675;BMP280;60752;53.962;9.614;2022-08-07T23:45:24;102468.81;;;14.10
72675;BMP280;60752;53.962;9.614;2022-08-07T23:50:35;102476.88;;;13.99
72675;BMP280;60752;53.962;9.614;2022-08-07T23:55:43;102467.91;;;13.94
